Time;durP1;ratioP1;P1;durP2;ratioP2;P2;SDS_P1;SDS_P2;PMS_P1;PMS_P2;Temp;Humidity;BMP_temperature;BMP_pressure;BME280_temperature;BME280_humidity;BME280_pressure;Samples;Min_cycle;Max_cycle;Signal;HPM_P1;HPM_P2
2021/03/01 00:00:42;;;;;;;17.45;8.52;;;;;;;4.45;66.18;101540.56;5134136;27;20060;-73
2021/03/01 00:03:08;;;;;;;17.33;9.18;;;;;;;4.44;65.78;101538.81;5133231;27;20038;-72
2021/03/01 00:05:34;;;;;;;18.77;8.75;;;;;;;4.40;66.04;101531.81;5134324;27;20485;-72
2021/03/01 00:08:00;;;;;;;14.90;8.48;;;;;;;4.41;65.85;101532.69;5115881;27;20034;-72
2021/03/01 00:10:25;;;;;;;17.60;9.20;;;;;;;4.45;65.51;101529.97;5133869;27;20024;-73
2021/03/01 00:12:51;;;;;;;19.95;9.23;;;;;;;4.29;66.43;101520.53;5133999;27;20075;-73
2021/03/01 00:15:19;;;;;;;20.92;8.85;;;;;;;4.27;66.16;101514.41;5133692;27;20046;-74
2021/03/01 00:17:45;;;;;;;16.20;8.90;;;;;;;4.28;66.23;101513.50;5133991;27;20474;-73
2021/03/01 00:20:12;;;;;;;15.40;8.63;;;;;;;4.16;66.40;101500.47;5133834;27;20042;-73
2021/03/01 00:22:40;;;;;;;19.95;9.70;;;;;;;4.21;66.23;101502.13;5115834;28;20110;-74
2021/03/01 00:25:06;;;;;;;16.17;8.48;;;;;;;4.28;65.66;101500.28;5133937;27;20047;-74
2021/03/01 00:27:32;;;;;;;16.85;8.80;;;;;;;4.35;65.29;101491.38;5133823;27;20057;-71
2021/03/01 00:29:57;;;;;;;16.35;8.30;;;;;;;4.40;65.24;101509.81;5115386;27;20469;-73
2021/03/01 00:32:23;;;;;;;15.60;8.52;;;;;;;4.36;65.02;101508.13;5133622;28;20027;-74
2021/03/01 00:34:48;;;;;;;15.98;8.20;;;;;;;4.29;65.50;101497.63;5115579;28;20046;-71
2021/03/01 00:37:14;;;;;;;14.75;8.48;;;;;;;4.21;65.58;101493.34;5133680;28;20054;-71
2021/03/01 00:39:39;;;;;;;16.20;8.32;;;;;;;4.26;65.17;101502.09;5133899;28;20055;-73
2021/03/01 00:42:05;;;;;;;13.95;8.55;;;;;;;4.31;64.90;101505.53;5133766;28;20385;-72
2021/03/01 00:44:31;;;;;;;16.42;8.32;;;;;;;4.38;64.67;101503.66;5133600;27;20034;-72
2021/03/01 00:46:56;;;;;;;15.55;8.45;;;;;;;4.30;64.79;101495.84;5133705;27;20045;-72
2021/03/01 00:49:22;;;;;;;15.40;8.30;;;;;;;4.26;65.69;101492.41;5133455;28;20027;-71
2021/03/01 00:51:48;;;;;;;18.17;7.85;;;;;;;4.15;66.32;101489.03;5133718;28;20469;-72
2021/03/01 00:54:13;;;;;;;17.33;8.85;;;;;;;4.02;66.76;101487.44;5133440;28;20044;-75
2021/03/01 00:56:39;;;;;;;17.67;8.77;;;;;;;3.89;67.44;101476.19;5133295;28;20131;-76
2021/03/01 00:59:04;;;;;;;19.48;9.20;;;;;;;3.83;67.40;101481.53;5133580;28;20042;-75
2021/03/01 01:01:30;;;;;;;19.02;9.10;;;;;;;3.83;67.69;101480.66;5133284;27;20504;-73
2021/03/01 01:03:55;;;;;;;19.25;9.77;;;;;;;3.83;67.63;101489.44;5133461;27;20031;-74
2021/03/01 01:06:21;;;;;;;20.75;9.77;;;;;;;3.80;67.82;101486.88;5114960;28;20054;-75
2021/03/01 01:08:46;;;;;;;19.50;9.93;;;;;;;3.76;68.14;101493.06;5133496;28;20511;-74
2021/03/01 01:11:12;;;;;;;17.17;9.60;;;;;;;3.70;68.22;101490.50;5115088;28;20027;-75
2021/03/01 01:13:37;;;;;;;18.95;9.50;;;;;;;3.57;68.82;101494.16;5134919;27;20034;-73
2021/03/01 01:16:03;;;;;;;16.27;8.48;;;;;;;3.70;67.83;101487.88;5137361;27;20031;-74
2021/03/01 01:18:29;;;;;;;21.58;10.15;;;;;;;3.53;68.59;101455.53;5137034;27;20030;-74
2021/03/01 01:20:54;;;;;;;19.33;9.15;;;;;;;3.54;68.90;101463.44;5137257;27;20031;-75
2021/03/01 01:23:20;;;;;;;19.55;10.05;;;;;;;3.53;68.88;101456.41;5137160;27;20563;-75
2021/03/01 01:25:45;;;;;;;19.60;9.65;;;;;;;3.54;69.15;101457.28;5137295;27;20035;-71
2021/03/01 01:28:11;;;;;;;16.30;9.13;;;;;;;3.48;69.45;101457.38;5136776;27;20118;-74
2021/03/01 01:30:36;;;;;;;17.90;9.57;;;;;;;3.40;69.78;101445.13;5137520;27;20027;-72
2021/03/01 01:33:02;;;;;;;20.13;9.43;;;;;;;3.39;70.08;101447.78;5119202;27;20066;-72
2021/03/01 01:35:28;;;;;;;19.00;9.80;;;;;;;3.45;69.57;101456.50;5136886;27;20031;-72
2021/03/01 01:37:53;;;;;;;16.70;9.10;;;;;;;3.53;69.16;101463.44;5136962;27;20029;-72
2021/03/01 01:40:21;;;;;;;16.23;9.13;;;;;;;3.54;69.42;101457.28;5136665;27;20481;-74
2021/03/01 01:42:48;;;;;;;18.83;9.32;;;;;;;3.53;69.45;101463.44;5136874;27;20366;-74
2021/03/01 01:45:18;;;;;;;18.23;9.20;;;;;;;3.51;69.34;101465.25;5118464;27;20114;-74
2021/03/01 01:47:44;;;;;;;18.92;8.75;;;;;;;3.49;69.48;101469.66;5136671;27;20035;-73
2021/03/01 01:50:10;;;;;;;18.40;8.93;;;;;;;3.56;69.33;101471.31;5136715;27;20103;-73
2021/03/01 01:52:36;;;;;;;20.25;10.05;;;;;;;3.51;69.80;101458.19;5136722;27;20049;-73
2021/03/01 01:55:07;;;;;;;18.65;8.82;;;;;;;3.47;70.05;101472.28;5136524;27;20511;-73
2021/03/01 01:57:33;;;;;;;19.23;9.55;;;;;;;3.40;70.31;101468.00;5136111;27;20451;-73
2021/03/01 01:59:59;;;;;;;18.50;9.32;;;;;;;3.35;70.45;101478.59;5136604;27;20043;-72
2021/03/01 02:02:25;;;;;;;18.23;10.02;;;;;;;3.25;70.85;101470.78;5136254;27;20035;-72
2021/03/01 02:04:55;;;;;;;17.42;7.50;;;;;;;3.26;71.17;101468.13;5118108;27;20431;-72
2021/03/01 02:07:28;;;;;;;22.13;10.38;;;;;;;3.27;71.30;101463.72;5136154;27;20393;-73
2021/03/01 02:10:00;;;;;;;;;;;;;;;3.20;71.32;101459.44;5136760;27;20047;-72
2021/03/01 02:12:47;;;;;;;18.52;10.23;;;;;;;3.14;71.52;101463.00;5135961;27;20009;-73
2021/03/01 02:15:25;;;;;;;18.80;9.68;;;;;;;3.12;71.84;101459.53;5136006;27;20091;-75
2021/03/01 02:17:51;;;;;;;18.63;9.90;;;;;;;3.10;72.05;101463.94;5136207;27;20465;-73
2021/03/01 02:20:16;;;;;;;20.85;10.05;;;;;;;3.10;71.99;101462.19;5135740;27;20046;-73
2021/03/01 02:22:42;;;;;;;19.35;10.35;;;;;;;3.06;71.66;101456.94;5117903;27;20062;-72
2021/03/01 02:25:11;;;;;;;21.30;9.70;;;;;;;3.03;71.89;101455.22;5116825;27;20118;-72
2021/03/01 02:28:01;;;;;;;20.00;9.38;;;;;;;3.08;71.82;101457.78;5135714;27;20023;-72
2021/03/01 02:30:34;;;;;;;18.17;9.73;;;;;;;3.01;72.23;101458.75;5135611;27;20021;-72
2021/03/01 02:33:10;;;;;;;18.60;9.05;;;;;;;3.02;72.02;101463.13;5136143;27;20430;-72
2021/03/01 02:35:40;;;;;;;19.05;10.15;;;;;;;3.06;71.65;101467.47;5135571;27;20049;-72
2021/03/01 02:38:08;;;;;;;18.05;9.88;;;;;;;2.97;72.01;101467.56;5135847;27;20432;-72
2021/03/01 02:40:40;;;;;;;19.77;9.27;;;;;;;2.88;72.47;101471.16;5117224;27;20055;-74
2021/03/01 02:43:06;;;;;;;17.75;9.52;;;;;;;2.81;72.49;101465.09;5135641;27;20019;-72
2021/03/01 02:45:32;;;;;;;18.98;9.68;;;;;;;2.90;72.40;101471.16;5135323;27;20057;-73
2021/03/01 02:48:00;;;;;;;19.48;9.50;;;;;;;2.92;72.37;101480.81;5117227;27;20437;-73
2021/03/01 02:50:26;;;;;;;17.08;9.60;;;;;;;2.86;72.72;101488.75;5117281;27;20110;-74
2021/03/01 02:52:54;;;;;;;18.33;9.93;;;;;;;2.71;72.73;101458.16;5117242;27;20031;-73
2021/03/01 02:55:21;;;;;;;19.13;9.07;;;;;;;2.76;72.85;101490.59;5135482;27;20027;-74
2021/03/01 02:57:47;;;;;;;20.13;10.38;;;;;;;2.84;72.69;101512.50;5135203;27;20043;-73
2021/03/01 03:00:14;;;;;;;18.67;9.75;;;;;;;2.72;73.06;101517.88;5135304;27;20030;-72
2021/03/01 03:02:41;;;;;;;16.75;9.65;;;;;;;2.68;73.26;101526.66;5116726;27;20477;-72
2021/03/01 03:05:09;;;;;;;17.23;8.80;;;;;;;2.58;73.78;101530.25;5135186;27;20038;-72
2021/03/01 03:07:37;;;;;;;19.55;10.07;;;;;;;2.54;74.24;101529.41;5134913;27;20027;-72
2021/03/01 03:10:06;;;;;;;20.70;9.68;;;;;;;2.55;74.06;101530.28;5135016;27;20061;-73
2021/03/01 03:12:33;;;;;;;20.13;10.50;;;;;;;2.52;74.08;101531.19;5134825;27;20372;-73
2021/03/01 03:15:01;;;;;;;18.27;9.23;;;;;;;2.50;74.42;101532.06;5116630;27;20023;-73
2021/03/01 03:17:31;;;;;;;18.48;9.95;;;;;;;2.41;74.37;101516.31;5134793;27;20042;-71
2021/03/01 03:19:56;;;;;;;21.92;9.52;;;;;;;2.34;74.87;101523.41;5135046;27;20049;-73
2021/03/01 03:22:22;;;;;;;19.63;10.30;;;;;;;2.45;74.24;101539.13;5134718;27;20122;-73
2021/03/01 03:24:47;;;;;;;17.58;9.75;;;;;;;2.55;73.69;101533.78;5134723;27;20469;-72
2021/03/01 03:27:13;;;;;;;20.38;10.73;;;;;;;2.54;73.41;101539.06;5116631;27;20035;-71
2021/03/01 03:29:38;;;;;;;21.10;9.65;;;;;;;2.52;73.65;101547.00;5134590;27;20024;-72
2021/03/01 03:32:04;;;;;;;17.00;9.68;;;;;;;2.52;73.29;101552.25;5134719;27;20035;-72
2021/03/01 03:34:30;;;;;;;24.98;10.32;;;;;;;2.48;73.14;101552.28;5134488;27;20110;-73
2021/03/01 03:37:07;;;;;;;19.25;8.95;;;;;;;2.35;73.93;101559.38;5134511;27;20023;-74
2021/03/01 03:39:41;;;;;;;19.35;9.60;;;;;;;2.37;73.35;101569.91;5134312;27;20045;-75
2021/03/01 03:42:08;;;;;;;19.95;9.57;;;;;;;2.34;73.48;101569.94;5134679;27;20126;-75
2021/03/01 03:44:37;;;;;;;22.88;10.43;;;;;;;2.27;73.64;101575.22;5134272;27;20366;-75
2021/03/01 03:47:06;;;;;;;20.20;9.57;;;;;;;2.25;73.62;101574.34;5134463;27;20033;-74
2021/03/01 03:49:32;;;;;;;20.27;10.15;;;;;;;2.15;73.15;101572.66;5134395;27;20053;-75
2021/03/01 03:52:00;;;;;;;21.48;10.25;;;;;;;2.22;73.54;101591.91;5134294;27;20106;-74
2021/03/01 03:54:30;;;;;;;23.52;10.77;;;;;;;2.13;73.74;101590.22;5133978;27;20023;-75
2021/03/01 03:56:57;;;;;;;20.75;10.68;;;;;;;2.03;73.93;101603.38;5134051;27;20062;-74
2021/03/01 03:59:28;;;;;;;20.83;10.52;;;;;;;2.03;73.95;101604.28;5133988;27;20067;-74
2021/03/01 04:01:55;;;;;;;17.58;10.35;;;;;;;2.07;73.65;101611.28;5134193;27;20473;-75
2021/03/01 04:04:24;;;;;;;18.10;10.13;;;;;;;2.04;73.51;101610.44;5133920;27;20035;-75
2021/03/01 04:06:51;;;;;;;21.40;10.55;;;;;;;1.93;74.05;101603.44;5134135;27;20019;-74
2021/03/01 04:09:19;;;;;;;20.90;10.25;;;;;;;2.01;73.51;101611.28;5115555;27;20114;-74
2021/03/01 04:11:48;;;;;;;19.05;10.10;;;;;;;2.07;73.55;101618.31;5134144;27;20473;-73
2021/03/01 04:14:20;;;;;;;19.52;10.13;;;;;;;2.05;73.38;101610.41;5134096;27;20110;-72
2021/03/01 04:16:49;;;;;;;22.92;10.40;;;;;;;2.02;73.44;101607.78;5134000;27;20027;-73
2021/03/01 04:19:16;;;;;;;21.50;10.40;;;;;;;2.04;73.13;101606.03;5133992;27;20050;-73
2021/03/01 04:21:43;;;;;;;23.25;10.02;;;;;;;2.00;73.76;101612.19;5133754;27;20038;-72
2021/03/01 04:24:10;;;;;;;20.35;10.27;;;;;;;2.06;73.45;101614.81;5133851;27;20030;-73
2021/03/01 04:26:36;;;;;;;21.10;10.63;;;;;;;1.94;73.75;101610.47;5133572;28;20114;-71
2021/03/01 04:29:03;;;;;;;19.52;10.25;;;;;;;1.93;73.53;101610.44;5133834;27;20055;-71
2021/03/01 04:31:29;;;;;;;19.92;10.25;;;;;;;1.87;73.84;101615.75;5115256;28;20027;-73
2021/03/01 04:33:56;;;;;;;19.58;9.88;;;;;;;1.80;74.10;101608.72;5115483;28;20035;-73
2021/03/01 04:36:24;;;;;;;22.67;10.20;;;;;;;1.93;73.68;101613.97;5115367;28;20038;-76
2021/03/01 04:38:49;;;;;;;18.55;9.77;;;;;;;1.93;73.53;101613.97;5134084;28;20023;-73
2021/03/01 04:41:16;;;;;;;20.20;10.43;;;;;;;1.92;73.53;101621.84;5133758;28;20023;-72
2021/03/01 04:43:42;;;;;;;22.70;11.20;;;;;;;1.84;74.06;101628.91;5133855;28;20503;-72
2021/03/01 04:46:10;;;;;;;20.98;10.27;;;;;;;1.74;74.08;101622.78;5133608;27;20031;-73
2021/03/01 04:48:36;;;;;;;18.77;9.90;;;;;;;1.69;74.57;101625.41;5136078;27;20032;-72
2021/03/01 04:51:03;;;;;;;24.02;10.80;;;;;;;1.68;74.74;101626.31;5102948;27;20031;-71
2021/03/01 04:53:29;;;;;;;22.65;10.73;;;;;;;1.58;75.20;101628.94;5137515;27;20099;-70
2021/03/01 04:55:56;;;;;;;23.23;10.88;;;;;;;1.58;75.23;101642.09;5137671;27;20055;-70
2021/03/01 04:58:23;;;;;;;21.15;9.93;;;;;;;1.60;75.14;101640.34;5118956;27;20138;-72
2021/03/01 05:00:50;;;;;;;22.40;11.23;;;;;;;1.56;75.38;101642.09;5137679;27;20023;-72
2021/03/01 05:03:15;;;;;;;24.67;10.93;;;;;;;1.46;75.60;101650.88;5137556;27;20469;-71
2021/03/01 05:05:41;;;;;;;20.05;11.32;;;;;;;1.50;75.74;101657.88;5137427;27;20027;-70
2021/03/01 05:08:16;;;;;;;22.90;10.93;;;;;;;1.57;75.38;101657.00;5137508;27;20038;-70
2021/03/01 05:10:43;;;;;;;25.60;11.50;;;;;;;1.64;75.55;101663.13;5137146;27;20579;-70
2021/03/01 05:13:10;;;;;;;26.13;12.07;;;;;;;1.60;75.74;101664.88;5137377;27;20031;-70
2021/03/01 05:15:35;;;;;;;20.63;10.88;;;;;;;1.53;75.67;101649.97;5118769;27;20102;-70
2021/03/01 05:18:02;;;;;;;25.45;11.48;;;;;;;1.40;76.37;101669.28;5118989;27;20107;-75
2021/03/01 05:20:28;;;;;;;23.23;12.07;;;;;;;1.23;76.95;101671.03;5118754;27;20127;-72
2021/03/01 05:22:53;;;;;;;25.33;12.48;;;;;;;1.28;77.42;101680.69;5137189;27;20069;-72
2021/03/01 05:25:19;;;;;;;27.02;13.48;;;;;;;1.34;76.70;101677.16;5118611;27;20389;-72
2021/03/01 05:27:44;;;;;;;31.27;14.38;;;;;;;1.33;76.65;101675.41;5118463;27;20092;-72
2021/03/01 05:30:11;;;;;;;32.50;14.57;;;;;;;1.37;76.42;101674.56;5137033;27;20080;-73
2021/03/01 05:32:37;;;;;;;29.88;14.77;;;;;;;1.47;75.97;101683.31;5136911;27;20023;-71
2021/03/01 05:35:07;;;;;;;32.20;13.57;;;;;;;1.61;75.49;101686.81;5118591;27;20034;-72
2021/03/01 05:37:33;;;;;;;26.58;13.02;;;;;;;1.74;74.60;101696.47;5118379;27;20031;-72
2021/03/01 05:39:59;;;;;;;27.20;12.95;;;;;;;1.80;74.43;101700.81;5118705;27;20034;-72
2021/03/01 05:42:26;;;;;;;26.38;11.90;;;;;;;1.67;75.17;101700.84;5118414;27;20027;-70
2021/03/01 05:44:54;;;;;;;27.70;12.00;;;;;;;1.64;75.44;101703.47;5136738;27;20489;-70
2021/03/01 05:47:22;;;;;;;25.50;11.88;;;;;;;1.64;75.60;101702.56;5136702;27;20031;-73
2021/03/01 05:49:49;;;;;;;26.65;12.13;;;;;;;1.74;75.35;101712.25;5136331;27;20122;-70
2021/03/01 05:52:20;;;;;;;27.77;11.20;;;;;;;1.73;74.92;101706.06;5136700;27;20109;-71
2021/03/01 05:54:46;;;;;;;22.45;11.60;;;;;;;1.85;75.10;101720.13;5136068;27;20465;-77
2021/03/01 05:57:13;;;;;;;28.17;12.98;;;;;;;1.83;75.24;101724.47;5136289;27;20100;-74
2021/03/01 05:59:40;;;;;;;25.48;11.77;;;;;;;1.85;75.18;101728.00;5134983;27;20098;-75
2021/03/01 06:02:07;;;;;;;24.20;13.10;;;;;;;1.89;75.06;101735.00;5136324;27;20027;-74
2021/03/01 06:04:33;;;;;;;27.42;12.23;;;;;;;1.99;74.92;101736.75;5136240;27;20045;-75
2021/03/01 06:06:59;;;;;;;25.20;12.50;;;;;;;2.05;74.70;101733.25;5118282;27;20027;-74
2021/03/01 06:09:25;;;;;;;25.35;12.85;;;;;;;2.12;74.33;101745.50;5135974;27;20038;-70
2021/03/01 06:11:54;;;;;;;24.02;11.93;;;;;;;2.23;73.79;101744.63;5135920;27;20027;-76
2021/03/01 06:14:20;;;;;;;24.35;11.63;;;;;;;2.19;74.25;101753.38;5117620;27;20096;-75
2021/03/01 06:17:11;;;;;;;25.05;12.23;;;;;;;2.24;73.86;101758.66;5135882;27;20027;-75
2021/03/01 06:19:43;;;;;;;23.17;11.55;;;;;;;2.30;73.66;101748.97;5135624;27;20076;-77
2021/03/01 06:22:09;;;;;;;26.67;13.23;;;;;;;2.30;73.96;101761.25;5136607;27;20031;-77
2021/03/01 06:24:35;;;;;;;22.95;12.05;;;;;;;2.33;74.15;101758.66;5135539;27;20278;-77
2021/03/01 06:27:00;;;;;;;24.00;12.77;;;;;;;2.41;73.46;101761.22;5135755;27;20034;-78
2021/03/01 06:29:26;;;;;;;28.17;13.10;;;;;;;2.55;72.79;101762.97;5135832;27;20084;-78
2021/03/01 06:31:51;;;;;;;29.27;12.55;;;;;;;2.66;72.36;101768.19;5116960;27;20031;-78
2021/03/01 06:34:17;;;;;;;24.48;11.77;;;;;;;2.68;72.50;101771.69;5135729;27;20038;-80
2021/03/01 06:37:02;;;;;;;27.45;12.60;;;;;;;2.76;72.32;101767.25;5135564;27;20081;-78
2021/03/01 06:39:36;;;;;;;26.58;11.65;;;;;;;2.90;71.80;101779.53;5135499;27;20027;-76
2021/03/01 06:42:16;;;;;;;;;;;;;;;2.88;71.19;101782.16;5135931;27;20023;-72
2021/03/01 06:45:02;;;;;;;24.27;11.63;;;;;;;3.00;70.80;101791.78;5135321;27;20312;-76
2021/03/01 06:47:46;;;;;;;24.25;11.52;;;;;;;3.12;70.94;101794.34;5117812;27;20043;-75
2021/03/01 06:50:32;;;;;;;25.23;11.93;;;;;;;3.07;70.44;101793.47;5135411;27;20030;-74
2021/03/01 06:53:16;;;;;;;22.60;11.57;;;;;;;3.14;70.22;101789.94;5135191;27;20027;-77
2021/03/01 06:56:04;;;;;;;25.15;11.80;;;;;;;3.34;69.35;101788.06;5135644;27;20368;-76
2021/03/01 06:58:41;;;;;;;26.20;11.82;;;;;;;3.36;69.94;101790.69;5135159;27;20051;-76
2021/03/01 07:01:20;;;;;;;24.35;11.90;;;;;;;3.41;69.38;101789.78;5135247;27;20030;-77
2021/03/01 07:03:49;;;;;;;28.25;12.43;;;;;;;3.58;69.14;101791.44;5134715;27;20023;-80
2021/03/01 07:06:15;;;;;;;25.20;12.45;;;;;;;3.64;68.90;101797.53;5135364;27;20338;-81
2021/03/01 07:08:52;;;;;;;22.95;11.45;;;;;;;3.78;68.07;101789.53;5134746;27;20488;-78
2021/03/01 07:11:36;;;;;;;30.15;12.30;;;;;;;3.74;68.31;101788.66;5134788;27;20485;-79
2021/03/01 07:14:04;;;;;;;25.67;11.70;;;;;;;3.74;68.50;101790.44;5134987;27;20034;-79
2021/03/01 07:16:37;;;;;;;24.38;11.55;;;;;;;3.85;67.60;101780.66;5134932;27;20499;-75
2021/03/01 07:19:05;;;;;;;24.27;12.52;;;;;;;3.89;68.05;101786.81;5135140;27;20383;-77
2021/03/01 07:21:31;;;;;;;23.77;11.98;;;;;;;4.06;66.42;101791.94;5135021;27;20035;-77
2021/03/01 07:23:58;;;;;;;25.90;12.60;;;;;;;4.05;66.55;101793.69;5134631;27;20541;-78
2021/03/01 07:26:26;;;;;;;27.90;12.63;;;;;;;4.13;66.90;101793.63;5134759;27;20047;-78
2021/03/01 07:28:55;;;;;;;27.42;12.10;;;;;;;4.18;65.90;101794.47;5134488;27;20031;-77
2021/03/01 07:31:25;;;;;;;26.30;12.02;;;;;;;4.09;65.96;101782.22;5136160;27;20031;-77
2021/03/01 07:33:52;;;;;;;26.23;11.73;;;;;;;4.22;66.11;101794.41;5150105;27;20023;-78
2021/03/01 07:36:17;;;;;;;24.85;12.13;;;;;;;4.31;65.66;101796.09;5150349;27;20058;-75
2021/03/01 07:38:43;;;;;;;27.75;12.32;;;;;;;4.43;65.71;101803.88;5147746;27;20027;-78
2021/03/01 07:41:09;;;;;;;27.25;12.52;;;;;;;4.32;65.80;101798.72;5143121;27;20027;-73
2021/03/01 07:43:38;;;;;;;30.48;13.43;;;;;;;4.49;65.23;101811.75;5118155;27;20022;-75
2021/03/01 07:46:04;;;;;;;25.35;11.85;;;;;;;4.69;64.51;101808.03;5135567;27;20120;-75
2021/03/01 07:48:38;;;;;;;24.20;11.85;;;;;;;4.73;64.35;101807.09;5135090;27;20380;-74
2021/03/01 07:51:04;;;;;;;26.02;12.48;;;;;;;4.79;64.52;101810.56;5135035;27;20477;-73
2021/03/01 07:53:43;;;;;;;27.38;11.98;;;;;;;4.90;64.22;101815.72;5116154;27;20113;-77
2021/03/01 07:56:24;;;;;;;21.33;10.60;;;;;;;5.03;62.72;101822.63;5134375;27;20535;-76
2021/03/01 07:59:02;;;;;;;23.20;11.25;;;;;;;5.07;62.84;101826.97;5133949;27;20043;-78
2021/03/01 08:01:29;;;;;;;22.42;11.15;;;;;;;5.16;62.24;101837.44;5134348;27;20019;-77
2021/03/01 08:03:56;;;;;;;24.00;11.20;;;;;;;5.22;62.06;101835.63;5119422;27;20047;-76
2021/03/01 08:06:22;;;;;;;23.13;10.73;;;;;;;5.22;62.29;101828.56;5147497;27;20027;-76
2021/03/01 08:08:49;;;;;;;25.08;11.70;;;;;;;5.18;62.22;101819.75;5143111;27;20031;-77
2021/03/01 08:11:36;;;;;;;24.52;11.20;;;;;;;5.17;62.51;101836.53;5135878;27;20027;-77
2021/03/01 08:14:02;;;;;;;28.45;11.80;;;;;;;5.38;62.07;101839.78;5119261;27;20485;-77
2021/03/01 08:16:28;;;;;;;23.08;10.80;;;;;;;5.47;61.28;101852.88;5133818;27;20023;-77
2021/03/01 08:18:58;;;;;;;26.42;10.90;;;;;;;5.53;60.79;101852.81;5133266;27;20381;-77
2021/03/01 08:21:25;;;;;;;25.05;11.38;;;;;;;5.47;60.96;101853.75;5115379;27;20031;-77
2021/03/01 08:23:51;;;;;;;20.90;11.13;;;;;;;5.63;60.97;101848.28;5132400;27;20023;-77
2021/03/01 08:26:33;;;;;;;23.42;10.45;;;;;;;5.74;60.20;101847.22;5133741;27;20393;-77
2021/03/01 08:29:16;;;;;;;19.88;9.68;;;;;;;5.70;59.59;101849.94;5115151;28;20037;-78
2021/03/01 08:31:42;;;;;;;19.33;9.77;;;;;;;5.71;59.78;101851.69;5133727;27;20098;-77
2021/03/01 08:34:26;;;;;;;22.25;9.70;;;;;;;5.75;60.30;101856.91;5133873;27;20478;-76
2021/03/01 08:36:52;;;;;;;20.45;10.18;;;;;;;5.97;59.58;101853.94;5133364;28;20011;-77
2021/03/01 08:40:00;;;;;;;19.65;10.40;;;;;;;6.04;59.56;101860.91;5133584;28;20363;-78
2021/03/01 08:42:45;;;;;;;27.52;10.40;;;;;;;6.03;59.66;101865.34;5088505;28;20034;-78
2021/03/01 08:45:11;;;;;;;22.55;10.77;;;;;;;5.91;60.19;101869.97;5133750;28;20064;-76
2021/03/01 08:47:51;;;;;;;20.10;11.00;;;;;;;5.91;60.00;101867.31;5133453;28;20477;-78
2021/03/01 08:50:25;;;;;;;20.55;10.68;;;;;;;5.92;60.78;101877.00;5133803;28;20031;-78
2021/03/01 08:52:51;;;;;;;22.83;11.13;;;;;;;5.92;61.06;101871.69;5133378;28;20469;-77
2021/03/01 08:55:18;;;;;;;24.73;11.55;;;;;;;5.98;60.05;101855.69;5115192;28;20038;-77
2021/03/01 08:57:58;;;;;;;23.55;11.35;;;;;;;6.06;59.65;101867.06;5133043;28;20043;-78
2021/03/01 09:00:25;;;;;;;21.85;11.75;;;;;;;6.03;60.15;101875.06;5133272;27;20400;-77
2021/03/01 09:03:08;;;;;;;21.15;11.00;;;;;;;5.90;60.73;101879.69;5133219;27;20039;-78
2021/03/01 09:05:34;;;;;;;20.25;10.88;;;;;;;5.93;61.00;101884.91;5115094;28;20023;-77
2021/03/01 09:08:00;;;;;;;22.70;11.45;;;;;;;5.93;61.49;101870.81;5133079;28;20034;-77
2021/03/01 09:10:44;;;;;;;27.80;11.63;;;;;;;6.13;60.61;101876.66;5133318;28;20033;-77
2021/03/01 09:13:15;;;;;;;22.48;11.70;;;;;;;6.20;59.85;101867.72;5133143;28;20025;-77
2021/03/01 09:15:41;;;;;;;21.23;11.50;;;;;;;6.24;59.94;101857.94;5114464;28;20027;-77
2021/03/01 09:18:09;;;;;;;23.80;11.07;;;;;;;6.39;59.98;101851.50;5133114;27;20071;-77
2021/03/01 09:20:41;;;;;;;19.25;10.23;;;;;;;6.81;58.11;101849.84;5115517;28;20054;-77
2021/03/01 09:23:07;;;;;;;17.03;10.07;;;;;;;6.91;57.98;101855.84;5133046;27;20052;-77
2021/03/01 09:25:34;;;;;;;19.25;10.45;;;;;;;7.04;57.14;101860.84;5133570;27;20264;-78
2021/03/01 09:28:00;;;;;;;16.02;9.07;;;;;;;7.03;57.23;101863.53;5132823;28;20526;-78
2021/03/01 09:30:27;;;;;;;18.92;10.00;;;;;;;7.02;57.57;101864.44;5133210;28;20027;-77
2021/03/01 09:32:59;;;;;;;18.33;10.20;;;;;;;7.28;56.76;101867.47;5132872;28;20500;-78
2021/03/01 09:35:27;;;;;;;20.45;10.43;;;;;;;7.34;56.36;101866.47;5135739;27;20075;-78
2021/03/01 09:37:54;;;;;;;18.90;10.85;;;;;;;7.29;56.91;101866.56;5118396;27;20023;-78
2021/03/01 09:40:21;;;;;;;18.30;10.02;;;;;;;7.41;56.18;101874.25;5136857;27;20046;-76
2021/03/01 09:42:56;;;;;;;17.88;9.27;;;;;;;7.54;55.73;101874.88;5118681;27;20110;-79
2021/03/01 09:45:22;;;;;;;20.05;10.23;;;;;;;7.46;56.09;101869.72;5136885;27;20027;-77
2021/03/01 09:47:50;;;;;;;19.63;10.30;;;;;;;7.57;55.79;101876.59;5117976;27;20023;-79
2021/03/01 09:50:17;;;;;;;18.23;8.65;;;;;;;7.50;55.25;101851.06;5136802;27;20389;-77
2021/03/01 09:52:45;;;;;;;16.65;8.73;;;;;;;7.88;54.81;101869.66;5136682;27;20045;-78
2021/03/01 09:55:11;;;;;;;19.25;8.48;;;;;;;7.80;54.91;101871.63;5136096;27;20027;-78
2021/03/01 09:57:37;;;;;;;17.25;8.98;;;;;;;7.96;54.87;101873.00;5136555;27;20051;-77
2021/03/01 10:00:24;;;;;;;17.88;8.65;;;;;;;7.86;54.38;101876.78;5136186;27;20035;-77
2021/03/01 10:03:00;;;;;;;18.88;9.52;;;;;;;7.71;55.18;101872.69;5135990;27;20475;-78
2021/03/01 10:05:29;;;;;;;15.75;8.80;;;;;;;7.76;55.03;101877.91;5136217;27;20114;-77
2021/03/01 10:08:00;;;;;;;18.48;8.90;;;;;;;7.89;55.29;101876.72;5117433;27;20031;-78
2021/03/01 10:10:33;;;;;;;15.85;8.75;;;;;;;8.04;54.78;101876.38;5136221;27;20058;-78
2021/03/01 10:12:59;;;;;;;16.88;9.02;;;;;;;8.07;54.29;101882.50;5135830;27;20373;-78
2021/03/01 10:15:25;;;;;;;15.52;8.35;;;;;;;8.21;54.41;101875.09;5117914;27;20023;-78
2021/03/01 10:18:08;;;;;;;13.40;7.63;;;;;;;8.45;52.96;101884.25;5100296;27;20023;-77
2021/03/01 10:20:45;;;;;;;16.92;8.82;;;;;;;8.57;53.48;101883.94;5136261;27;20115;-78
2021/03/01 10:23:11;;;;;;;13.45;7.68;;;;;;;8.68;52.78;101884.53;5135699;27;20138;-78
2021/03/01 10:25:39;;;;;;;16.83;8.52;;;;;;;8.54;52.56;101882.25;5136104;27;20114;-78
2021/03/01 10:28:07;;;;;;;13.68;7.22;;;;;;;8.56;52.73;101879.53;5135539;27;20023;-77
2021/03/01 10:30:33;;;;;;;15.27;8.48;;;;;;;8.50;52.89;101882.38;5135669;27;20027;-77
2021/03/01 10:33:06;;;;;;;15.38;7.55;;;;;;;8.49;53.53;101884.16;5135455;27;20027;-77
2021/03/01 10:35:32;;;;;;;12.38;7.00;;;;;;;8.71;52.37;101883.59;5117383;27;20388;-77
2021/03/01 10:38:17;;;;;;;15.73;6.80;;;;;;;9.00;51.41;101885.47;5116862;27;20030;-78
2021/03/01 10:40:42;;;;;;;11.50;6.43;;;;;;;9.14;50.61;101878.81;5135716;27;20032;-78
2021/03/01 10:43:13;;;;;;;12.82;6.45;;;;;;;9.36;49.81;101875.53;5135292;27;20034;-77
2021/03/01 10:45:40;;;;;;;10.57;6.00;;;;;;;9.39;50.08;101883.44;5135002;27;20034;-77
2021/03/01 10:48:06;;;;;;;16.00;5.97;;;;;;;9.43;49.10;101877.97;5135131;27;20071;-77
2021/03/01 10:50:32;;;;;;;13.63;6.55;;;;;;;9.44;49.07;101886.84;5116945;27;20126;-79
2021/03/01 10:52:57;;;;;;;10.50;5.35;;;;;;;9.40;48.97;101880.75;5116762;27;20019;-76
2021/03/01 10:55:23;;;;;;;11.27;5.40;;;;;;;9.43;48.41;101885.09;5135234;27;20046;-76
2021/03/01 10:57:48;;;;;;;8.27;4.95;;;;;;;9.59;48.30;101881.06;5117131;27;20051;-77
2021/03/01 11:00:14;;;;;;;13.82;5.65;;;;;;;9.69;48.44;101871.00;5134826;27;20031;-78
2021/03/01 11:02:40;;;;;;;10.80;5.63;;;;;;;9.68;47.87;101878.13;5116611;27;20389;-76
2021/03/01 11:05:06;;;;;;;12.73;5.93;;;;;;;9.66;48.32;101882.63;5134587;27;20023;-77
2021/03/01 11:07:32;;;;;;;9.93;5.50;;;;;;;9.56;48.39;101878.50;5134997;27;20027;-76
2021/03/01 11:09:57;;;;;;;11.40;5.63;;;;;;;9.41;49.34;101869.16;5134699;27;20031;-77
2021/03/01 11:12:23;;;;;;;10.95;4.88;;;;;;;9.73;47.61;101873.50;5135112;27;20404;-77
2021/03/01 11:14:48;;;;;;;17.48;7.68;;;;;;;9.80;46.84;101873.31;5134888;27;20038;-76
2021/03/01 11:17:14;;;;;;;14.15;4.43;;;;;;;9.74;47.42;101869.91;5134569;27;20030;-78
2021/03/01 11:19:39;;;;;;;8.52;4.75;;;;;;;9.79;47.06;101866.25;5134752;27;20477;-76
2021/03/01 11:22:05;;;;;;;8.68;4.40;;;;;;;9.81;46.51;101864.41;5134362;27;20084;-76
2021/03/01 11:24:31;;;;;;;8.18;4.60;;;;;;;9.80;46.74;101862.66;5134731;27;20031;-76
2021/03/01 11:26:56;;;;;;;7.25;3.80;;;;;;;10.11;45.99;101866.09;5134483;27;20031;-77
2021/03/01 11:29:22;;;;;;;7.15;4.07;;;;;;;10.11;45.56;101860.75;5116429;27;20041;-77